EZY369U EGAE-EGPH
Flight info
| Callsign | EZY369U |
|---|---|
| Flight time | 0h 27m |
| Altitude | 23000 |
| Route | MAC N562 TRN DCT TLA |
| Aircraft | A20N/M-SDE2E3FGHIRWXY/LB1 |
Departure
| Time | 2026-04-23 15:09 |
|---|---|
| Airport | City of Derry Airport (EGAE) |
Arrival
| Time | 2026-04-23 15:37 |
|---|---|
| Airport | Edinburgh Airport (EGPH) |
| Time | Latitude | Longitude | Altitude | Speed | Heading |
|---|---|---|---|---|---|
| 2026-04-23 14:54 | 55.04002 | -7.15811 | 31 ft | 0 kts | 167° |
| 2026-04-23 15:01 | 55.04023 | -7.15819 | 31 ft | 4 kts | 170° |
| 2026-04-23 15:01 | 55.04049 | -7.15824 | 31 ft | 4 kts | 188° |
| 2026-04-23 15:02 | 55.04064 | -7.15817 | 31 ft | 4 kts | 237° |
| 2026-04-23 15:02 | 55.04066 | -7.15798 | 31 ft | 0 kts | 284° |
| 2026-04-23 15:05 | 55.04068 | -7.15810 | 30 ft | 4 kts | 284° |
| 2026-04-23 15:06 | 55.04093 | -7.15878 | 31 ft | 10 kts | 329° |
| 2026-04-23 15:06 | 55.04190 | -7.15913 | 31 ft | 20 kts | 349° |
| 2026-04-23 15:06 | 55.04294 | -7.15982 | 31 ft | 14 kts | 300° |
| 2026-04-23 15:06 | 55.04271 | -7.16178 | 30 ft | 20 kts | 253° |
| 2026-04-23 15:07 | 55.04226 | -7.16435 | 30 ft | 24 kts | 253° |
| 2026-04-23 15:07 | 55.04173 | -7.16735 | 32 ft | 27 kts | 253° |
| 2026-04-23 15:07 | 55.04114 | -7.17079 | 33 ft | 31 kts | 253° |
| 2026-04-23 15:07 | 55.04050 | -7.17436 | 31 ft | 13 kts | 246° |
| 2026-04-23 15:08 | 55.04007 | -7.17508 | 30 ft | 12 kts | 223° |
| 2026-04-23 15:08 | 55.03992 | -7.17630 | 29 ft | 9 kts | 276° |
| 2026-04-23 15:08 | 55.04018 | -7.17633 | 28 ft | 2 kts | 52° |
| 2026-04-23 15:09 | 55.04071 | -7.17332 | 32 ft | 67 kts | 72° |
| 2026-04-23 15:09 | 55.04285 | -7.16119 | 31 ft | 137 kts | 71° |
| 2026-04-23 15:09 | 55.04581 | -7.14504 | 693 ft | 134 kts | 75° |
| 2026-04-23 15:09 | 55.04902 | -7.12994 | 1468 ft | 134 kts | 69° |
| 2026-04-23 15:10 | 55.05427 | -7.11578 | 2077 ft | 146 kts | 64° |
| 2026-04-23 15:10 | 55.05896 | -7.09861 | 2608 ft | 168 kts | 72° |
| 2026-04-23 15:10 | 55.06357 | -7.07852 | 3280 ft | 191 kts | 72° |
| 2026-04-23 15:10 | 55.06892 | -7.05577 | 4142 ft | 215 kts | 71° |
| 2026-04-23 15:11 | 55.07522 | -7.03054 | 5050 ft | 240 kts | 69° |
| 2026-04-23 15:11 | 55.08251 | -7.00262 | 5995 ft | 265 kts | 69° |
| 2026-04-23 15:11 | 55.09043 | -6.97278 | 7170 ft | 275 kts | 68° |
| 2026-04-23 15:11 | 55.09864 | -6.94219 | 8471 ft | 282 kts | 68° |
| 2026-04-23 15:12 | 55.10698 | -6.91081 | 9756 ft | 289 kts | 68° |
| 2026-04-23 15:12 | 55.11550 | -6.87854 | 10972 ft | 298 kts | 67° |
| 2026-04-23 15:12 | 55.12450 | -6.84426 | 11710 ft | 323 kts | 67° |
| 2026-04-23 15:12 | 55.13418 | -6.80728 | 12388 ft | 345 kts | 66° |
| 2026-04-23 15:13 | 55.14430 | -6.76864 | 13390 ft | 353 kts | 66° |
| 2026-04-23 15:13 | 55.15463 | -6.72922 | 14454 ft | 359 kts | 66° |
| 2026-04-23 15:13 | 55.16511 | -6.68920 | 15496 ft | 365 kts | 66° |
| 2026-04-23 15:13 | 55.17577 | -6.64839 | 16493 ft | 371 kts | 66° |
| 2026-04-23 15:14 | 55.18655 | -6.60700 | 17460 ft | 376 kts | 66° |
| 2026-04-23 15:14 | 55.19747 | -6.56495 | 18389 ft | 382 kts | 66° |
| 2026-04-23 15:14 | 55.20852 | -6.52228 | 19282 ft | 387 kts | 66° |
| 2026-04-23 15:14 | 55.21961 | -6.47946 | 20150 ft | 393 kts | 66° |
| 2026-04-23 15:15 | 55.23095 | -6.43560 | 21012 ft | 397 kts | 66° |
| 2026-04-23 15:15 | 55.24242 | -6.39113 | 21842 ft | 402 kts | 66° |
| 2026-04-23 15:15 | 55.25398 | -6.34621 | 22612 ft | 407 kts | 66° |
| 2026-04-23 15:15 | 55.26570 | -6.30055 | 23161 ft | 412 kts | 66° |
| 2026-04-23 15:16 | 55.27745 | -6.25464 | 23371 ft | 413 kts | 66° |
| 2026-04-23 15:16 | 55.28924 | -6.20858 | 23435 ft | 413 kts | 66° |
| 2026-04-23 15:16 | 55.30101 | -6.16248 | 23437 ft | 414 kts | 67° |
| 2026-04-23 15:16 | 55.31263 | -6.11690 | 23437 ft | 413 kts | 67° |
| 2026-04-23 15:17 | 55.32449 | -6.07026 | 23443 ft | 414 kts | 67° |
| 2026-04-23 15:17 | 55.33608 | -6.02453 | 23430 ft | 414 kts | 67° |
| 2026-04-23 15:17 | 55.34775 | -5.97844 | 23430 ft | 414 kts | 67° |
| 2026-04-23 15:17 | 55.35944 | -5.93208 | 23431 ft | 414 kts | 66° |
| 2026-04-23 15:18 | 55.37112 | -5.88573 | 23430 ft | 414 kts | 66° |
| 2026-04-23 15:18 | 55.38266 | -5.83984 | 23428 ft | 414 kts | 66° |
| 2026-04-23 15:18 | 55.39417 | -5.79346 | 23430 ft | 414 kts | 68° |
| 2026-04-23 15:18 | 55.40470 | -5.74633 | 23430 ft | 414 kts | 70° |
| 2026-04-23 15:19 | 55.41478 | -5.69887 | 23430 ft | 414 kts | 70° |
| 2026-04-23 15:19 | 55.42481 | -5.65145 | 23427 ft | 413 kts | 70° |
| 2026-04-23 15:19 | 55.43491 | -5.60408 | 23247 ft | 412 kts | 70° |
| 2026-04-23 15:19 | 55.44490 | -5.55752 | 23005 ft | 410 kts | 70° |
| 2026-04-23 15:20 | 55.45499 | -5.51064 | 22748 ft | 408 kts | 70° |
| 2026-04-23 15:20 | 55.46505 | -5.46393 | 22506 ft | 407 kts | 70° |
| 2026-04-23 15:20 | 55.47508 | -5.41732 | 22256 ft | 406 kts | 70° |
| 2026-04-23 15:20 | 55.48502 | -5.37096 | 22007 ft | 404 kts | 70° |
| 2026-04-23 15:21 | 55.49490 | -5.32475 | 21755 ft | 401 kts | 70° |
| 2026-04-23 15:21 | 55.50474 | -5.27867 | 21506 ft | 400 kts | 70° |
| 2026-04-23 15:21 | 55.51450 | -5.23286 | 21256 ft | 399 kts | 70° |
| 2026-04-23 15:21 | 55.52426 | -5.18693 | 21004 ft | 397 kts | 70° |
| 2026-04-23 15:22 | 55.53390 | -5.14150 | 20756 ft | 395 kts | 70° |
| 2026-04-23 15:22 | 55.54350 | -5.09613 | 20503 ft | 394 kts | 70° |
| 2026-04-23 15:22 | 55.55307 | -5.05077 | 19962 ft | 395 kts | 70° |
| 2026-04-23 15:22 | 55.56265 | -5.00525 | 19249 ft | 393 kts | 70° |
| 2026-04-23 15:23 | 55.57215 | -4.95997 | 18571 ft | 389 kts | 70° |
| 2026-04-23 15:23 | 55.58148 | -4.91549 | 17994 ft | 381 kts | 70° |
| 2026-04-23 15:23 | 55.59054 | -4.87219 | 17684 ft | 372 kts | 70° |
| 2026-04-23 15:23 | 55.59942 | -4.82969 | 17134 ft | 376 kts | 70° |
| 2026-04-23 15:24 | 55.60848 | -4.78621 | 16488 ft | 375 kts | 70° |
| 2026-04-23 15:24 | 55.61747 | -4.74301 | 15841 ft | 371 kts | 70° |
| 2026-04-23 15:24 | 55.62632 | -4.70037 | 15201 ft | 366 kts | 70° |
| 2026-04-23 15:24 | 55.63504 | -4.65824 | 14567 ft | 362 kts | 70° |
| 2026-04-23 15:25 | 55.64366 | -4.61652 | 13946 ft | 358 kts | 71° |
| 2026-04-23 15:25 | 55.65215 | -4.57537 | 13320 ft | 354 kts | 71° |
| 2026-04-23 15:25 | 55.66043 | -4.53512 | 12705 ft | 350 kts | 71° |
| 2026-04-23 15:25 | 55.66873 | -4.49474 | 12105 ft | 346 kts | 71° |
| 2026-04-23 15:26 | 55.67688 | -4.45492 | 11496 ft | 343 kts | 71° |
| 2026-04-23 15:26 | 55.68497 | -4.41537 | 10892 ft | 340 kts | 71° |
| 2026-04-23 15:26 | 55.69293 | -4.37637 | 10549 ft | 329 kts | 71° |
| 2026-04-23 15:26 | 55.70049 | -4.33924 | 10398 ft | 313 kts | 71° |
| 2026-04-23 15:27 | 55.70773 | -4.30362 | 10155 ft | 301 kts | 71° |
| 2026-04-23 15:27 | 55.71479 | -4.26885 | 9803 ft | 296 kts | 71° |
| 2026-04-23 15:27 | 55.72164 | -4.23507 | 9508 ft | 289 kts | 71° |
| 2026-04-23 15:27 | 55.72839 | -4.20160 | 9086 ft | 287 kts | 71° |
| 2026-04-23 15:28 | 55.73510 | -4.16837 | 8659 ft | 284 kts | 71° |
| 2026-04-23 15:28 | 55.74167 | -4.13580 | 8233 ft | 283 kts | 71° |
| 2026-04-23 15:28 | 55.74828 | -4.10303 | 7801 ft | 282 kts | 71° |
| 2026-04-23 15:28 | 55.75494 | -4.06999 | 7377 ft | 280 kts | 71° |
| 2026-04-23 15:29 | 55.76139 | -4.03782 | 6955 ft | 279 kts | 71° |
| 2026-04-23 15:29 | 55.76789 | -4.00536 | 6524 ft | 278 kts | 71° |
| 2026-04-23 15:29 | 55.77436 | -3.97303 | 6087 ft | 276 kts | 72° |
| 2026-04-23 15:29 | 55.78073 | -3.94098 | 5658 ft | 275 kts | 72° |
| 2026-04-23 15:30 | 55.78716 | -3.90867 | 5147 ft | 277 kts | 72° |
| 2026-04-23 15:30 | 55.79353 | -3.87657 | 4753 ft | 274 kts | 72° |
| 2026-04-23 15:30 | 55.79987 | -3.84462 | 4337 ft | 272 kts | 72° |
| 2026-04-23 15:30 | 55.80609 | -3.81329 | 4077 ft | 264 kts | 72° |
| 2026-04-23 15:31 | 55.81222 | -3.78388 | 3991 ft | 250 kts | 68° |
| 2026-04-23 15:31 | 55.81965 | -3.75679 | 3981 ft | 236 kts | 63° |
| 2026-04-23 15:31 | 55.82761 | -3.73226 | 3983 ft | 223 kts | 60° |
| 2026-04-23 15:31 | 55.83542 | -3.70937 | 3980 ft | 210 kts | 60° |
| 2026-04-23 15:32 | 55.84277 | -3.68776 | 3937 ft | 201 kts | 60° |
| 2026-04-23 15:32 | 55.85001 | -3.66656 | 3706 ft | 201 kts | 60° |
| 2026-04-23 15:32 | 55.85729 | -3.64513 | 3438 ft | 204 kts | 60° |
| 2026-04-23 15:32 | 55.86474 | -3.62329 | 3156 ft | 206 kts | 60° |
| 2026-04-23 15:33 | 55.87219 | -3.60137 | 2872 ft | 207 kts | 60° |
| 2026-04-23 15:33 | 55.87966 | -3.57946 | 2589 ft | 207 kts | 60° |
| 2026-04-23 15:33 | 55.88700 | -3.55789 | 2319 ft | 203 kts | 60° |
| 2026-04-23 15:33 | 55.89403 | -3.53720 | 2050 ft | 187 kts | 59° |
| 2026-04-23 15:34 | 55.90041 | -3.51839 | 1835 ft | 167 kts | 59° |
| 2026-04-23 15:34 | 55.90611 | -3.50166 | 1613 ft | 149 kts | 59° |
| 2026-04-23 15:34 | 55.91121 | -3.48666 | 1427 ft | 133 kts | 58° |
| 2026-04-23 15:34 | 55.91569 | -3.47348 | 1259 ft | 117 kts | 58° |
| 2026-04-23 15:35 | 55.91978 | -3.46144 | 1109 ft | 115 kts | 57° |
| 2026-04-23 15:35 | 55.92383 | -3.44947 | 951 ft | 111 kts | 58° |
| 2026-04-23 15:35 | 55.92787 | -3.43756 | 803 ft | 112 kts | 58° |
| 2026-04-23 15:35 | 55.93196 | -3.42574 | 651 ft | 113 kts | 58° |
| 2026-04-23 15:36 | 55.93599 | -3.41371 | 488 ft | 113 kts | 59° |
| 2026-04-23 15:36 | 55.93996 | -3.40188 | 342 ft | 113 kts | 58° |
| 2026-04-23 15:36 | 55.94413 | -3.38975 | 197 ft | 114 kts | 58° |
| 2026-04-23 15:36 | 55.94809 | -3.37804 | 115 ft | 105 kts | 59° |
| 2026-04-23 15:37 | 55.95103 | -3.36937 | 112 ft | 53 kts | 62° |
| 2026-04-23 15:37 | 55.95216 | -3.36592 | 110 ft | 28 kts | 57° |
| 2026-04-23 15:37 | 55.95251 | -3.36428 | 111 ft | 16 kts | 116° |
| 2026-04-23 15:37 | 55.95150 | -3.36296 | 113 ft | 13 kts | 131° |
| 2026-04-23 15:38 | 55.95115 | -3.36117 | 113 ft | 16 kts | 108° |
| 2026-04-23 15:38 | 55.95077 | -3.35939 | 114 ft | 15 kts | 119° |
| 2026-04-23 15:38 | 55.95029 | -3.35830 | 115 ft | 8 kts | 163° |
| 2026-04-23 15:38 | 55.94960 | -3.35859 | 115 ft | 13 kts | 180° |
| 2026-04-23 15:39 | 55.94910 | -3.35795 | 114 ft | 8 kts | 117° |
| 2026-04-23 15:39 | 55.94888 | -3.35720 | 115 ft | 3 kts | 119° |
| 2026-04-23 15:39 | 55.94885 | -3.35712 | 113 ft | 0 kts | 120° |
| 2026-04-23 15:39 | 55.94881 | -3.35701 | 113 ft | 3 kts | 124° |
| 2026-04-23 15:40 | 55.94847 | -3.35711 | 112 ft | 7 kts | 205° |
| 2026-04-23 15:40 | 55.94823 | -3.35737 | 116 ft | 1 kts | 210° |
| 2026-04-23 15:40 | 55.94816 | -3.35744 | 116 ft | 1 kts | 208° |
| 2026-04-23 15:40 | 55.94810 | -3.35750 | 115 ft | 0 kts | 208° |